sensor_id;sensor_type;location;lat;lon;timestamp;P1;durP1;ratioP1;P2;durP2;ratioP2
21816;SDS011;13247;47.504;7.382;2023-01-20T15:22:16;11.68;;;5.85;;
21816;SDS011;13247;47.504;7.382;2023-01-20T15:25:10;9.02;;;5.70;;
21816;SDS011;13247;47.504;7.382;2023-01-20T15:27:56;14.25;;;8.15;;
21816;SDS011;13247;47.504;7.382;2023-01-20T15:30:41;12.02;;;6.63;;
21816;SDS011;13247;47.504;7.382;2023-01-20T15:33:25;10.32;;;6.28;;
21816;SDS011;13247;47.504;7.382;2023-01-20T15:36:44;16.63;;;6.30;;
21816;SDS011;13247;47.504;7.382;2023-01-20T15:39:25;10.57;;;5.85;;
21816;SDS011;13247;47.504;7.382;2023-01-20T15:42:14;14.65;;;8.20;;
21816;SDS011;13247;47.504;7.382;2023-01-20T15:45:01;13.38;;;8.00;;
21816;SDS011;13247;47.504;7.382;2023-01-20T15:47:45;18.13;;;8.07;;
21816;SDS011;13247;47.504;7.382;2023-01-20T15:50:30;11.02;;;6.43;;
21816;SDS011;13247;47.504;7.382;2023-01-20T15:53:15;10.07;;;6.03;;
21816;SDS011;13247;47.504;7.382;2023-01-20T15:56:00;11.30;;;5.97;;
21816;SDS011;13247;47.504;7.382;2023-01-20T15:58:46;10.90;;;6.28;;
21816;SDS011;13247;47.504;7.382;2023-01-20T16:01:31;10.38;;;6.03;;
21816;SDS011;13247;47.504;7.382;2023-01-20T16:04:15;10.48;;;5.93;;
21816;SDS011;13247;47.504;7.382;2023-01-20T16:07:00;9.55;;;5.18;;
21816;SDS011;13247;47.504;7.382;2023-01-20T16:09:45;10.52;;;5.50;;
21816;SDS011;13247;47.504;7.382;2023-01-20T16:12:30;13.00;;;6.13;;
21816;SDS011;13247;47.504;7.382;2023-01-20T16:15:15;13.07;;;5.50;;
21816;SDS011;13247;47.504;7.382;2023-01-20T16:18:00;15.07;;;7.30;;
21816;SDS011;13247;47.504;7.382;2023-01-20T16:20:46;11.68;;;5.88;;
21816;SDS011;13247;47.504;7.382;2023-01-20T16:23:32;13.82;;;6.13;;
21816;SDS011;13247;47.504;7.382;2023-01-20T16:26:20;11.38;;;5.78;;
21816;SDS011;13247;47.504;7.382;2023-01-20T16:29:08;9.68;;;5.60;;
21816;SDS011;13247;47.504;7.382;2023-01-20T16:31:52;16.05;;;8.35;;
21816;SDS011;13247;47.504;7.382;2023-01-20T16:34:37;11.85;;;6.97;;
21816;SDS011;13247;47.504;7.382;2023-01-20T16:37:22;10.77;;;5.35;;
21816;SDS011;13247;47.504;7.382;2023-01-20T16:40:17;14.20;;;6.07;;
21816;SDS011;13247;47.504;7.382;2023-01-20T16:43:03;8.02;;;4.93;;
21816;SDS011;13247;47.504;7.382;2023-01-20T16:45:49;11.20;;;6.13;;
21816;SDS011;13247;47.504;7.382;2023-01-20T16:48:36;11.13;;;6.43;;
21816;SDS011;13247;47.504;7.382;2023-01-20T16:51:21;14.85;;;7.30;;
21816;SDS011;13247;47.504;7.382;2023-01-20T16:54:08;14.15;;;7.85;;
21816;SDS011;13247;47.504;7.382;2023-01-20T16:56:53;12.20;;;6.68;;
21816;SDS011;13247;47.504;7.382;2023-01-20T16:59:38;14.18;;;7.75;;
21816;SDS011;13247;47.504;7.382;2023-01-20T17:02:23;15.73;;;7.95;;
21816;SDS011;13247;47.504;7.382;2023-01-20T17:05:07;10.57;;;7.13;;
21816;SDS011;13247;47.504;7.382;2023-01-20T17:07:53;12.85;;;7.50;;
21816;SDS011;13247;47.504;7.382;2023-01-20T17:10:40;18.65;;;9.07;;
21816;SDS011;13247;47.504;7.382;2023-01-20T17:13:30;14.57;;;7.40;;
21816;SDS011;13247;47.504;7.382;2023-01-20T17:16:15;16.77;;;8.27;;
21816;SDS011;13247;47.504;7.382;2023-01-20T17:19:01;16.15;;;8.35;;
21816;SDS011;13247;47.504;7.382;2023-01-20T17:21:46;12.40;;;7.22;;
21816;SDS011;13247;47.504;7.382;2023-01-20T17:24:32;18.20;;;9.38;;
21816;SDS011;13247;47.504;7.382;2023-01-20T17:27:17;19.40;;;10.05;;
21816;SDS011;13247;47.504;7.382;2023-01-20T17:30:03;22.60;;;9.98;;
21816;SDS011;13247;47.504;7.382;2023-01-20T17:32:49;15.90;;;9.35;;
21816;SDS011;13247;47.504;7.382;2023-01-20T17:35:34;16.80;;;10.25;;
21816;SDS011;13247;47.504;7.382;2023-01-20T17:38:19;18.83;;;11.20;;
21816;SDS011;13247;47.504;7.382;2023-01-20T17:41:05;21.08;;;12.23;;
21816;SDS011;13247;47.504;7.382;2023-01-20T17:43:51;26.38;;;13.32;;
21816;SDS011;13247;47.504;7.382;2023-01-20T17:46:36;29.02;;;15.02;;
21816;SDS011;13247;47.504;7.382;2023-01-20T17:49:21;38.97;;;17.23;;
21816;SDS011;13247;47.504;7.382;2023-01-20T17:52:05;28.67;;;13.43;;
21816;SDS011;13247;47.504;7.382;2023-01-20T17:54:50;21.30;;;11.73;;
21816;SDS011;13247;47.504;7.382;2023-01-20T17:57:34;26.63;;;12.02;;
21816;SDS011;13247;47.504;7.382;2023-01-20T18:00:19;28.95;;;13.20;;
21816;SDS011;13247;47.504;7.382;2023-01-20T18:03:04;25.85;;;12.88;;
21816;SDS011;13247;47.504;7.382;2023-01-20T18:05:49;29.50;;;12.07;;
21816;SDS011;13247;47.504;7.382;2023-01-20T18:08:36;19.35;;;9.65;;
21816;SDS011;13247;47.504;7.382;2023-01-20T18:11:21;17.45;;;8.27;;
21816;SDS011;13247;47.504;7.382;2023-01-20T18:14:07;17.30;;;8.02;;
21816;SDS011;13247;47.504;7.382;2023-01-20T18:16:52;13.30;;;7.18;;
21816;SDS011;13247;47.504;7.382;2023-01-20T18:19:36;21.70;;;9.15;;
21816;SDS011;13247;47.504;7.382;2023-01-20T18:22:21;21.63;;;9.65;;
21816;SDS011;13247;47.504;7.382;2023-01-20T18:25:06;26.17;;;10.82;;
21816;SDS011;13247;47.504;7.382;2023-01-20T18:27:51;20.75;;;10.82;;
21816;SDS011;13247;47.504;7.382;2023-01-20T18:30:35;20.60;;;10.55;;
21816;SDS011;13247;47.504;7.382;2023-01-20T18:33:22;22.27;;;10.48;;
21816;SDS011;13247;47.504;7.382;2023-01-20T18:36:08;19.40;;;10.40;;
21816;SDS011;13247;47.504;7.382;2023-01-20T18:38:55;22.45;;;10.80;;
21816;SDS011;13247;47.504;7.382;2023-01-20T18:41:42;27.65;;;13.35;;
21816;SDS011;13247;47.504;7.382;2023-01-20T18:44:28;31.40;;;11.80;;
21816;SDS011;13247;47.504;7.382;2023-01-20T18:47:13;24.15;;;11.82;;
21816;SDS011;13247;47.504;7.382;2023-01-20T18:49:57;29.20;;;14.75;;
21816;SDS011;13247;47.504;7.382;2023-01-20T18:52:42;32.63;;;16.38;;
21816;SDS011;13247;47.504;7.382;2023-01-20T18:55:26;30.80;;;14.88;;
21816;SDS011;13247;47.504;7.382;2023-01-20T18:58:14;29.38;;;15.00;;
21816;SDS011;13247;47.504;7.382;2023-01-20T19:01:01;27.10;;;13.73;;
21816;SDS011;13247;47.504;7.382;2023-01-20T19:03:46;29.63;;;13.35;;
21816;SDS011;13247;47.504;7.382;2023-01-20T19:06:34;26.45;;;13.52;;
21816;SDS011;13247;47.504;7.382;2023-01-20T19:09:20;27.45;;;13.40;;
21816;SDS011;13247;47.504;7.382;2023-01-20T19:12:05;45.97;;;22.30;;
21816;SDS011;13247;47.504;7.382;2023-01-20T19:14:50;36.47;;;18.17;;
21816;SDS011;13247;47.504;7.382;2023-01-20T19:17:37;40.38;;;19.33;;
21816;SDS011;13247;47.504;7.382;2023-01-20T19:20:21;35.13;;;17.70;;
21816;SDS011;13247;47.504;7.382;2023-01-20T19:23:06;29.63;;;16.50;;
21816;SDS011;13247;47.504;7.382;2023-01-20T19:25:57;32.10;;;16.17;;
21816;SDS011;13247;47.504;7.382;2023-01-20T19:28:47;24.60;;;12.93;;
21816;SDS011;13247;47.504;7.382;2023-01-20T19:31:38;22.75;;;12.52;;
21816;SDS011;13247;47.504;7.382;2023-01-20T19:34:23;22.73;;;11.82;;
21816;SDS011;13247;47.504;7.382;2023-01-20T19:37:09;22.00;;;12.18;;
21816;SDS011;13247;47.504;7.382;2023-01-20T19:39:54;31.25;;;15.18;;
21816;SDS011;13247;47.504;7.382;2023-01-20T19:42:39;27.15;;;14.75;;
21816;SDS011;13247;47.504;7.382;2023-01-20T19:45:24;31.73;;;14.75;;
21816;SDS011;13247;47.504;7.382;2023-01-20T19:48:09;29.75;;;14.57;;
21816;SDS011;13247;47.504;7.382;2023-01-20T19:50:54;35.47;;;15.52;;
21816;SDS011;13247;47.504;7.382;2023-01-20T19:53:39;28.88;;;15.07;;
21816;SDS011;13247;47.504;7.382;2023-01-20T19:56:25;25.58;;;14.18;;
21816;SDS011;13247;47.504;7.382;2023-01-20T19:59:12;31.20;;;13.57;;
21816;SDS011;13247;47.504;7.382;2023-01-20T20:01:57;25.30;;;12.35;;
21816;SDS011;13247;47.504;7.382;2023-01-20T20:04:42;22.17;;;11.20;;
21816;SDS011;13247;47.504;7.382;2023-01-20T20:07:26;19.17;;;11.02;;
21816;SDS011;13247;47.504;7.382;2023-01-20T20:10:11;28.30;;;14.75;;
21816;SDS011;13247;47.504;7.382;2023-01-20T20:12:55;39.75;;;20.05;;
21816;SDS011;13247;47.504;7.382;2023-01-20T20:15:40;59.53;;;26.90;;
21816;SDS011;13247;47.504;7.382;2023-01-20T20:18:24;34.72;;;17.17;;
21816;SDS011;13247;47.504;7.382;2023-01-20T20:21:09;21.60;;;12.00;;
21816;SDS011;13247;47.504;7.382;2023-01-20T20:23:54;28.33;;;13.10;;
21816;SDS011;13247;47.504;7.382;2023-01-20T20:26:40;25.85;;;11.75;;
21816;SDS011;13247;47.504;7.382;2023-01-20T20:29:28;38.88;;;17.00;;
21816;SDS011;13247;47.504;7.382;2023-01-20T20:32:12;22.60;;;11.95;;
21816;SDS011;13247;47.504;7.382;2023-01-20T20:34:59;26.17;;;13.88;;
21816;SDS011;13247;47.504;7.382;2023-01-20T20:37:43;29.83;;;14.90;;
21816;SDS011;13247;47.504;7.382;2023-01-20T20:40:30;24.50;;;11.68;;
21816;SDS011;13247;47.504;7.382;2023-01-20T20:43:15;23.63;;;10.32;;
21816;SDS011;13247;47.504;7.382;2023-01-20T20:46:00;18.42;;;10.75;;
21816;SDS011;13247;47.504;7.382;2023-01-20T20:48:46;19.60;;;9.10;;
21816;SDS011;13247;47.504;7.382;2023-01-20T20:51:31;17.35;;;8.55;;
21816;SDS011;13247;47.504;7.382;2023-01-20T20:54:17;21.52;;;10.20;;
21816;SDS011;13247;47.504;7.382;2023-01-20T20:57:01;16.80;;;9.68;;
21816;SDS011;13247;47.504;7.382;2023-01-20T20:59:46;23.85;;;11.63;;
21816;SDS011;13247;47.504;7.382;2023-01-20T21:02:30;25.08;;;13.00;;
21816;SDS011;13247;47.504;7.382;2023-01-20T21:05:15;27.25;;;13.25;;
21816;SDS011;13247;47.504;7.382;2023-01-20T21:08:01;32.78;;;16.55;;
21816;SDS011;13247;47.504;7.382;2023-01-20T21:10:48;21.30;;;11.60;;
21816;SDS011;13247;47.504;7.382;2023-01-20T21:13:33;28.48;;;13.68;;
21816;SDS011;13247;47.504;7.382;2023-01-20T21:16:18;48.55;;;23.40;;
21816;SDS011;13247;47.504;7.382;2023-01-20T21:19:05;29.17;;;14.10;;
21816;SDS011;13247;47.504;7.382;2023-01-20T21:21:50;21.52;;;10.27;;
21816;SDS011;13247;47.504;7.382;2023-01-20T21:24:35;16.08;;;7.63;;
21816;SDS011;13247;47.504;7.382;2023-01-20T21:27:20;14.35;;;7.47;;
21816;SDS011;13247;47.504;7.382;2023-01-20T21:30:05;15.68;;;7.85;;
21816;SDS011;13247;47.504;7.382;2023-01-20T21:32:50;16.38;;;6.88;;
21816;SDS011;13247;47.504;7.382;2023-01-20T21:35:36;22.17;;;10.90;;
21816;SDS011;13247;47.504;7.382;2023-01-20T21:38:21;23.77;;;11.50;;
21816;SDS011;13247;47.504;7.382;2023-01-20T21:41:06;17.90;;;9.90;;
21816;SDS011;13247;47.504;7.382;2023-01-20T21:43:52;22.67;;;10.73;;
21816;SDS011;13247;47.504;7.382;2023-01-20T21:46:56;17.50;;;8.50;;
21816;SDS011;13247;47.504;7.382;2023-01-20T21:49:43;26.02;;;10.98;;
21816;SDS011;13247;47.504;7.382;2023-01-20T21:52:46;34.78;;;16.80;;
21816;SDS011;13247;47.504;7.382;2023-01-20T21:55:32;29.02;;;13.57;;
21816;SDS011;13247;47.504;7.382;2023-01-20T21:58:20;16.38;;;8.32;;
21816;SDS011;13247;47.504;7.382;2023-01-20T22:01:04;13.55;;;7.00;;
21816;SDS011;13247;47.504;7.382;2023-01-20T22:03:49;14.00;;;6.55;;
21816;SDS011;13247;47.504;7.382;2023-01-20T22:06:33;11.95;;;6.90;;
21816;SDS011;13247;47.504;7.382;2023-01-20T22:09:18;12.00;;;7.07;;
21816;SDS011;13247;47.504;7.382;2023-01-20T22:12:03;18.23;;;9.45;;
21816;SDS011;13247;47.504;7.382;2023-01-20T22:14:48;19.27;;;8.68;;
21816;SDS011;13247;47.504;7.382;2023-01-20T22:17:32;17.63;;;9.68;;
21816;SDS011;13247;47.504;7.382;2023-01-20T22:20:17;21.33;;;9.25;;
21816;SDS011;13247;47.504;7.382;2023-01-20T22:23:02;16.00;;;7.97;;
21816;SDS011;13247;47.504;7.382;2023-01-20T22:25:51;16.98;;;9.18;;
21816;SDS011;13247;47.504;7.382;2023-01-20T22:28:36;15.10;;;8.18;;
21816;SDS011;13247;47.504;7.382;2023-01-20T22:31:22;25.77;;;10.52;;
21816;SDS011;13247;47.504;7.382;2023-01-20T22:34:07;23.80;;;12.18;;
21816;SDS011;13247;47.504;7.382;2023-01-20T22:36:53;27.65;;;12.45;;
21816;SDS011;13247;47.504;7.382;2023-01-20T22:39:39;12.45;;;6.35;;
21816;SDS011;13247;47.504;7.382;2023-01-20T22:42:24;13.93;;;7.85;;
21816;SDS011;13247;47.504;7.382;2023-01-20T22:45:08;17.08;;;8.10;;
21816;SDS011;13247;47.504;7.382;2023-01-20T22:47:54;16.83;;;8.48;;
21816;SDS011;13247;47.504;7.382;2023-01-20T22:50:39;14.35;;;7.65;;
21816;SDS011;13247;47.504;7.382;2023-01-20T22:53:23;12.40;;;7.25;;
21816;SDS011;13247;47.504;7.382;2023-01-20T22:56:12;15.60;;;8.40;;
21816;SDS011;13247;47.504;7.382;2023-01-20T22:59:01;18.42;;;8.93;;
21816;SDS011;13247;47.504;7.382;2023-01-20T23:01:47;16.08;;;8.18;;
21816;SDS011;13247;47.504;7.382;2023-01-20T23:04:31;19.17;;;8.20;;
21816;SDS011;13247;47.504;7.382;2023-01-20T23:07:16;12.57;;;7.07;;
21816;SDS011;13247;47.504;7.382;2023-01-20T23:10:01;13.63;;;7.38;;
21816;SDS011;13247;47.504;7.382;2023-01-20T23:12:49;15.55;;;7.10;;
21816;SDS011;13247;47.504;7.382;2023-01-20T23:15:34;15.25;;;7.80;;
21816;SDS011;13247;47.504;7.382;2023-01-20T23:18:18;15.00;;;7.35;;
21816;SDS011;13247;47.504;7.382;2023-01-20T23:21:04;13.52;;;7.75;;
21816;SDS011;13247;47.504;7.382;2023-01-20T23:23:49;13.57;;;7.68;;
21816;SDS011;13247;47.504;7.382;2023-01-20T23:26:36;16.95;;;8.00;;
21816;SDS011;13247;47.504;7.382;2023-01-20T23:29:21;18.63;;;8.70;;
21816;SDS011;13247;47.504;7.382;2023-01-20T23:32:06;14.65;;;8.18;;
21816;SDS011;13247;47.504;7.382;2023-01-20T23:34:51;17.35;;;10.25;;
21816;SDS011;13247;47.504;7.382;2023-01-20T23:37:35;15.43;;;8.10;;
21816;SDS011;13247;47.504;7.382;2023-01-20T23:40:20;40.22;;;17.48;;
21816;SDS011;13247;47.504;7.382;2023-01-20T23:43:05;19.13;;;9.27;;
21816;SDS011;13247;47.504;7.382;2023-01-20T23:45:49;13.23;;;7.35;;
21816;SDS011;13247;47.504;7.382;2023-01-20T23:48:34;14.18;;;7.28;;
21816;SDS011;13247;47.504;7.382;2023-01-20T23:51:20;12.77;;;7.13;;
21816;SDS011;13247;47.504;7.382;2023-01-20T23:54:04;11.75;;;6.05;;
21816;SDS011;13247;47.504;7.382;2023-01-20T23:56:50;12.43;;;6.78;;
21816;SDS011;13247;47.504;7.382;2023-01-20T23:59:34;16.13;;;8.27;;
